sensor_id;sensor_type;location;lat;lon;timestamp;P1;durP1;ratioP1;P2;durP2;ratioP2
5694;SDS011;2872;48.874;9.358;2023-04-09T00:01:35;11.93;;;7.32;;
5694;SDS011;2872;48.874;9.358;2023-04-09T00:04:01;10.00;;;7.38;;
5694;SDS011;2872;48.874;9.358;2023-04-09T00:06:29;12.90;;;7.40;;
5694;SDS011;2872;48.874;9.358;2023-04-09T00:08:56;9.50;;;7.32;;
5694;SDS011;2872;48.874;9.358;2023-04-09T00:11:23;9.20;;;7.38;;
5694;SDS011;2872;48.874;9.358;2023-04-09T00:13:49;9.02;;;6.63;;
5694;SDS011;2872;48.874;9.358;2023-04-09T00:16:16;9.82;;;7.40;;
5694;SDS011;2872;48.874;9.358;2023-04-09T00:18:42;9.20;;;7.13;;
5694;SDS011;2872;48.874;9.358;2023-04-09T00:21:09;11.23;;;6.80;;
5694;SDS011;2872;48.874;9.358;2023-04-09T00:23:37;11.80;;;8.02;;
5694;SDS011;2872;48.874;9.358;2023-04-09T00:26:04;11.18;;;7.75;;
5694;SDS011;2872;48.874;9.358;2023-04-09T00:28:31;12.40;;;7.90;;
5694;SDS011;2872;48.874;9.358;2023-04-09T00:30:58;11.02;;;7.38;;
5694;SDS011;2872;48.874;9.358;2023-04-09T00:33:24;10.00;;;7.20;;
5694;SDS011;2872;48.874;9.358;2023-04-09T00:35:51;11.15;;;7.90;;
5694;SDS011;2872;48.874;9.358;2023-04-09T00:38:18;12.50;;;8.07;;
5694;SDS011;2872;48.874;9.358;2023-04-09T00:40:48;10.48;;;7.55;;
5694;SDS011;2872;48.874;9.358;2023-04-09T00:43:15;10.60;;;7.70;;
5694;SDS011;2872;48.874;9.358;2023-04-09T00:45:42;11.37;;;7.70;;
5694;SDS011;2872;48.874;9.358;2023-04-09T00:48:09;9.83;;;7.20;;
5694;SDS011;2872;48.874;9.358;2023-04-09T00:50:36;10.05;;;7.70;;
5694;SDS011;2872;48.874;9.358;2023-04-09T00:53:02;10.35;;;7.25;;
5694;SDS011;2872;48.874;9.358;2023-04-09T00:55:30;10.43;;;7.60;;
5694;SDS011;2872;48.874;9.358;2023-04-09T00:57:58;10.57;;;7.70;;
5694;SDS011;2872;48.874;9.358;2023-04-09T01:00:25;11.80;;;7.97;;
5694;SDS011;2872;48.874;9.358;2023-04-09T01:02:52;10.80;;;8.20;;
5694;SDS011;2872;48.874;9.358;2023-04-09T01:05:19;14.82;;;7.93;;
5694;SDS011;2872;48.874;9.358;2023-04-09T01:07:49;10.90;;;8.02;;
5694;SDS011;2872;48.874;9.358;2023-04-09T01:10:23;12.63;;;7.93;;
5694;SDS011;2872;48.874;9.358;2023-04-09T01:13:02;10.70;;;7.55;;
5694;SDS011;2872;48.874;9.358;2023-04-09T01:15:34;13.15;;;8.63;;
5694;SDS011;2872;48.874;9.358;2023-04-09T01:18:04;14.38;;;8.82;;
5694;SDS011;2872;48.874;9.358;2023-04-09T01:20:33;11.80;;;8.27;;
5694;SDS011;2872;48.874;9.358;2023-04-09T01:23:06;10.23;;;7.40;;
5694;SDS011;2872;48.874;9.358;2023-04-09T01:25:43;10.13;;;7.10;;
5694;SDS011;2872;48.874;9.358;2023-04-09T01:28:17;12.98;;;7.63;;
5694;SDS011;2872;48.874;9.358;2023-04-09T01:30:47;11.25;;;7.32;;
5694;SDS011;2872;48.874;9.358;2023-04-09T01:33:15;12.18;;;7.65;;
5694;SDS011;2872;48.874;9.358;2023-04-09T01:35:43;13.77;;;8.20;;
5694;SDS011;2872;48.874;9.358;2023-04-09T01:38:12;16.45;;;9.27;;
5694;SDS011;2872;48.874;9.358;2023-04-09T01:40:40;12.40;;;9.07;;
5694;SDS011;2872;48.874;9.358;2023-04-09T01:43:07;12.77;;;8.18;;
5694;SDS011;2872;48.874;9.358;2023-04-09T01:45:35;10.63;;;7.80;;
5694;SDS011;2872;48.874;9.358;2023-04-09T01:48:02;12.93;;;8.68;;
5694;SDS011;2872;48.874;9.358;2023-04-09T01:50:30;12.88;;;8.80;;
5694;SDS011;2872;48.874;9.358;2023-04-09T01:52:57;11.20;;;8.30;;
5694;SDS011;2872;48.874;9.358;2023-04-09T01:55:25;10.98;;;7.57;;
5694;SDS011;2872;48.874;9.358;2023-04-09T01:57:52;12.93;;;8.05;;
5694;SDS011;2872;48.874;9.358;2023-04-09T02:00:18;11.45;;;8.13;;
5694;SDS011;2872;48.874;9.358;2023-04-09T02:02:47;19.00;;;8.30;;
5694;SDS011;2872;48.874;9.358;2023-04-09T02:05:21;14.00;;;8.40;;
5694;SDS011;2872;48.874;9.358;2023-04-09T02:07:51;13.30;;;8.30;;
5694;SDS011;2872;48.874;9.358;2023-04-09T02:10:20;11.43;;;7.95;;
5694;SDS011;2872;48.874;9.358;2023-04-09T02:12:50;10.23;;;7.87;;
5694;SDS011;2872;48.874;9.358;2023-04-09T02:15:18;11.57;;;7.78;;
5694;SDS011;2872;48.874;9.358;2023-04-09T02:17:46;9.73;;;7.20;;
5694;SDS011;2872;48.874;9.358;2023-04-09T02:20:15;10.32;;;8.50;;
5694;SDS011;2872;48.874;9.358;2023-04-09T02:22:42;12.00;;;8.00;;
5694;SDS011;2872;48.874;9.358;2023-04-09T02:25:09;13.23;;;8.13;;
5694;SDS011;2872;48.874;9.358;2023-04-09T02:27:35;13.03;;;8.80;;
5694;SDS011;2872;48.874;9.358;2023-04-09T02:30:02;11.35;;;8.75;;
5694;SDS011;2872;48.874;9.358;2023-04-09T02:32:30;12.10;;;8.52;;
5694;SDS011;2872;48.874;9.358;2023-04-09T02:34:57;11.82;;;8.15;;
5694;SDS011;2872;48.874;9.358;2023-04-09T02:37:24;12.82;;;7.68;;
5694;SDS011;2872;48.874;9.358;2023-04-09T02:39:51;11.93;;;7.97;;
5694;SDS011;2872;48.874;9.358;2023-04-09T02:42:17;14.23;;;8.57;;
5694;SDS011;2872;48.874;9.358;2023-04-09T02:44:44;11.67;;;8.50;;
5694;SDS011;2872;48.874;9.358;2023-04-09T02:47:10;12.20;;;7.55;;
5694;SDS011;2872;48.874;9.358;2023-04-09T02:49:37;9.40;;;7.53;;
5694;SDS011;2872;48.874;9.358;2023-04-09T02:52:05;12.38;;;8.18;;
5694;SDS011;2872;48.874;9.358;2023-04-09T02:54:32;11.65;;;7.88;;
5694;SDS011;2872;48.874;9.358;2023-04-09T02:56:58;14.05;;;7.70;;
5694;SDS011;2872;48.874;9.358;2023-04-09T02:59:25;11.18;;;8.52;;
5694;SDS011;2872;48.874;9.358;2023-04-09T03:01:52;12.60;;;7.60;;
5694;SDS011;2872;48.874;9.358;2023-04-09T03:04:18;11.45;;;7.55;;
5694;SDS011;2872;48.874;9.358;2023-04-09T03:06:45;10.30;;;7.40;;
5694;SDS011;2872;48.874;9.358;2023-04-09T03:09:13;14.83;;;8.20;;
5694;SDS011;2872;48.874;9.358;2023-04-09T03:11:40;11.00;;;7.72;;
5694;SDS011;2872;48.874;9.358;2023-04-09T03:14:07;14.43;;;8.63;;
5694;SDS011;2872;48.874;9.358;2023-04-09T03:16:33;11.77;;;7.72;;
5694;SDS011;2872;48.874;9.358;2023-04-09T03:19:00;12.98;;;7.88;;
5694;SDS011;2872;48.874;9.358;2023-04-09T03:21:27;11.05;;;7.95;;
5694;SDS011;2872;48.874;9.358;2023-04-09T03:23:53;13.48;;;7.70;;
5694;SDS011;2872;48.874;9.358;2023-04-09T03:26:21;9.65;;;7.45;;
5694;SDS011;2872;48.874;9.358;2023-04-09T03:28:48;11.00;;;7.30;;
5694;SDS011;2872;48.874;9.358;2023-04-09T03:31:15;11.32;;;7.50;;
5694;SDS011;2872;48.874;9.358;2023-04-09T03:33:41;12.30;;;7.97;;
5694;SDS011;2872;48.874;9.358;2023-04-09T03:36:08;10.60;;;6.80;;
5694;SDS011;2872;48.874;9.358;2023-04-09T03:38:34;11.25;;;7.30;;
5694;SDS011;2872;48.874;9.358;2023-04-09T03:41:01;11.05;;;7.43;;
5694;SDS011;2872;48.874;9.358;2023-04-09T03:43:29;12.23;;;7.20;;
5694;SDS011;2872;48.874;9.358;2023-04-09T03:45:55;10.55;;;7.00;;
5694;SDS011;2872;48.874;9.358;2023-04-09T03:48:22;10.45;;;7.93;;
5694;SDS011;2872;48.874;9.358;2023-04-09T03:50:49;11.37;;;7.83;;
5694;SDS011;2872;48.874;9.358;2023-04-09T03:53:15;10.63;;;7.43;;
5694;SDS011;2872;48.874;9.358;2023-04-09T03:55:42;12.68;;;7.50;;
5694;SDS011;2872;48.874;9.358;2023-04-09T03:58:09;10.32;;;7.40;;
5694;SDS011;2872;48.874;9.358;2023-04-09T04:00:37;12.95;;;8.20;;
5694;SDS011;2872;48.874;9.358;2023-04-09T04:03:03;12.45;;;8.25;;
5694;SDS011;2872;48.874;9.358;2023-04-09T04:05:30;12.63;;;8.10;;
5694;SDS011;2872;48.874;9.358;2023-04-09T04:07:56;10.27;;;8.00;;
5694;SDS011;2872;48.874;9.358;2023-04-09T04:10:23;12.20;;;8.10;;
5694;SDS011;2872;48.874;9.358;2023-04-09T04:12:50;10.95;;;7.40;;
5694;SDS011;2872;48.874;9.358;2023-04-09T04:15:16;12.18;;;8.00;;
5694;SDS011;2872;48.874;9.358;2023-04-09T04:17:45;11.40;;;8.20;;
5694;SDS011;2872;48.874;9.358;2023-04-09T04:20:12;12.43;;;7.60;;
5694;SDS011;2872;48.874;9.358;2023-04-09T04:22:39;14.55;;;8.02;;
5694;SDS011;2872;48.874;9.358;2023-04-09T04:25:05;12.30;;;8.33;;
5694;SDS011;2872;48.874;9.358;2023-04-09T04:27:32;11.30;;;7.38;;
5694;SDS011;2872;48.874;9.358;2023-04-09T04:29:59;9.45;;;7.40;;
5694;SDS011;2872;48.874;9.358;2023-04-09T04:32:26;11.40;;;7.70;;
5694;SDS011;2872;48.874;9.358;2023-04-09T04:34:54;15.70;;;7.32;;
5694;SDS011;2872;48.874;9.358;2023-04-09T04:37:21;15.32;;;8.13;;
5694;SDS011;2872;48.874;9.358;2023-04-09T04:39:47;11.00;;;7.68;;
5694;SDS011;2872;48.874;9.358;2023-04-09T04:42:14;12.10;;;7.93;;
5694;SDS011;2872;48.874;9.358;2023-04-09T04:44:41;9.95;;;7.47;;
5694;SDS011;2872;48.874;9.358;2023-04-09T04:47:07;10.55;;;7.50;;
5694;SDS011;2872;48.874;9.358;2023-04-09T04:49:34;14.20;;;7.65;;
5694;SDS011;2872;48.874;9.358;2023-04-09T04:52:02;13.07;;;8.02;;
5694;SDS011;2872;48.874;9.358;2023-04-09T04:54:29;10.47;;;7.50;;
5694;SDS011;2872;48.874;9.358;2023-04-09T04:56:55;10.50;;;7.50;;
5694;SDS011;2872;48.874;9.358;2023-04-09T04:59:22;11.38;;;8.15;;
5694;SDS011;2872;48.874;9.358;2023-04-09T05:01:48;11.60;;;7.90;;
5694;SDS011;2872;48.874;9.358;2023-04-09T05:04:15;12.80;;;8.70;;
5694;SDS011;2872;48.874;9.358;2023-04-09T05:06:42;12.65;;;7.45;;
5694;SDS011;2872;48.874;9.358;2023-04-09T05:09:10;11.60;;;8.00;;
5694;SDS011;2872;48.874;9.358;2023-04-09T05:11:36;12.80;;;8.95;;
5694;SDS011;2872;48.874;9.358;2023-04-09T05:14:03;14.73;;;8.85;;
5694;SDS011;2872;48.874;9.358;2023-04-09T05:16:30;12.55;;;8.57;;
5694;SDS011;2872;48.874;9.358;2023-04-09T05:18:57;12.43;;;8.55;;
5694;SDS011;2872;48.874;9.358;2023-04-09T05:21:24;13.02;;;8.63;;
5694;SDS011;2872;48.874;9.358;2023-04-09T05:23:51;13.13;;;8.45;;
5694;SDS011;2872;48.874;9.358;2023-04-09T05:26:19;14.70;;;8.73;;
5694;SDS011;2872;48.874;9.358;2023-04-09T05:28:46;11.32;;;8.00;;
5694;SDS011;2872;48.874;9.358;2023-04-09T05:31:13;12.00;;;8.60;;
5694;SDS011;2872;48.874;9.358;2023-04-09T05:33:40;12.45;;;8.43;;
5694;SDS011;2872;48.874;9.358;2023-04-09T05:36:07;13.27;;;8.60;;
5694;SDS011;2872;48.874;9.358;2023-04-09T05:38:33;16.65;;;8.38;;
5694;SDS011;2872;48.874;9.358;2023-04-09T05:41:00;14.25;;;9.05;;
5694;SDS011;2872;48.874;9.358;2023-04-09T05:43:28;12.65;;;8.02;;
5694;SDS011;2872;48.874;9.358;2023-04-09T05:45:55;14.47;;;9.13;;
5694;SDS011;2872;48.874;9.358;2023-04-09T05:48:22;12.32;;;8.40;;
5694;SDS011;2872;48.874;9.358;2023-04-09T05:50:48;12.93;;;8.02;;
5694;SDS011;2872;48.874;9.358;2023-04-09T05:53:16;15.98;;;8.77;;
5694;SDS011;2872;48.874;9.358;2023-04-09T05:55:43;13.07;;;8.45;;
5694;SDS011;2872;48.874;9.358;2023-04-09T05:58:09;15.27;;;9.30;;
5694;SDS011;2872;48.874;9.358;2023-04-09T06:00:37;12.57;;;8.50;;
5694;SDS011;2872;48.874;9.358;2023-04-09T06:03:04;13.60;;;8.85;;
5694;SDS011;2872;48.874;9.358;2023-04-09T06:05:31;13.80;;;9.52;;
5694;SDS011;2872;48.874;9.358;2023-04-09T06:07:57;13.38;;;9.30;;
5694;SDS011;2872;48.874;9.358;2023-04-09T06:10:24;14.70;;;9.43;;
5694;SDS011;2872;48.874;9.358;2023-04-09T06:12:50;15.65;;;8.80;;
5694;SDS011;2872;48.874;9.358;2023-04-09T06:15:17;14.75;;;8.90;;
5694;SDS011;2872;48.874;9.358;2023-04-09T06:17:45;11.32;;;8.00;;
5694;SDS011;2872;48.874;9.358;2023-04-09T06:20:12;13.25;;;8.25;;
5694;SDS011;2872;48.874;9.358;2023-04-09T06:22:38;15.43;;;9.13;;
5694;SDS011;2872;48.874;9.358;2023-04-09T06:25:05;14.50;;;9.02;;
5694;SDS011;2872;48.874;9.358;2023-04-09T06:27:32;14.52;;;9.27;;
5694;SDS011;2872;48.874;9.358;2023-04-09T06:29:59;12.65;;;8.73;;
5694;SDS011;2872;48.874;9.358;2023-04-09T06:32:26;12.85;;;8.25;;
5694;SDS011;2872;48.874;9.358;2023-04-09T06:34:54;13.57;;;8.60;;
5694;SDS011;2872;48.874;9.358;2023-04-09T06:37:20;15.60;;;8.97;;
5694;SDS011;2872;48.874;9.358;2023-04-09T06:39:47;14.23;;;9.27;;
5694;SDS011;2872;48.874;9.358;2023-04-09T06:42:14;12.60;;;8.40;;
5694;SDS011;2872;48.874;9.358;2023-04-09T06:44:40;17.00;;;9.57;;
5694;SDS011;2872;48.874;9.358;2023-04-09T06:47:07;14.45;;;9.70;;
5694;SDS011;2872;48.874;9.358;2023-04-09T06:49:34;14.60;;;8.10;;
5694;SDS011;2872;48.874;9.358;2023-04-09T06:52:02;12.48;;;8.25;;
5694;SDS011;2872;48.874;9.358;2023-04-09T06:54:29;11.88;;;8.52;;
5694;SDS011;2872;48.874;9.358;2023-04-09T06:56:55;12.60;;;8.48;;
5694;SDS011;2872;48.874;9.358;2023-04-09T06:59:22;12.27;;;8.00;;
5694;SDS011;2872;48.874;9.358;2023-04-09T07:01:49;14.40;;;8.82;;
5694;SDS011;2872;48.874;9.358;2023-04-09T07:04:16;12.02;;;9.38;;
5694;SDS011;2872;48.874;9.358;2023-04-09T07:06:42;13.75;;;7.85;;
5694;SDS011;2872;48.874;9.358;2023-04-09T07:09:10;18.45;;;8.40;;
5694;SDS011;2872;48.874;9.358;2023-04-09T07:11:37;12.50;;;8.38;;
5694;SDS011;2872;48.874;9.358;2023-04-09T07:14:03;12.35;;;8.63;;
5694;SDS011;2872;48.874;9.358;2023-04-09T07:16:30;11.98;;;8.30;;
5694;SDS011;2872;48.874;9.358;2023-04-09T07:18:57;12.95;;;8.13;;
5694;SDS011;2872;48.874;9.358;2023-04-09T07:21:23;13.70;;;9.20;;
5694;SDS011;2872;48.874;9.358;2023-04-09T07:23:50;11.40;;;8.20;;
5694;SDS011;2872;48.874;9.358;2023-04-09T07:26:18;12.05;;;7.70;;
5694;SDS011;2872;48.874;9.358;2023-04-09T07:28:45;11.32;;;7.70;;
5694;SDS011;2872;48.874;9.358;2023-04-09T07:31:12;12.50;;;7.70;;
5694;SDS011;2872;48.874;9.358;2023-04-09T07:33:39;11.43;;;7.97;;
5694;SDS011;2872;48.874;9.358;2023-04-09T07:36:06;11.50;;;8.20;;
5694;SDS011;2872;48.874;9.358;2023-04-09T07:38:32;9.10;;;7.30;;
5694;SDS011;2872;48.874;9.358;2023-04-09T07:40:59;10.60;;;8.05;;
5694;SDS011;2872;48.874;9.358;2023-04-09T07:43:27;13.05;;;8.15;;
5694;SDS011;2872;48.874;9.358;2023-04-09T07:45:54;11.45;;;8.30;;
5694;SDS011;2872;48.874;9.358;2023-04-09T07:48:20;10.88;;;7.88;;
5694;SDS011;2872;48.874;9.358;2023-04-09T07:50:47;12.43;;;7.90;;
5694;SDS011;2872;48.874;9.358;2023-04-09T07:53:14;10.73;;;7.15;;
5694;SDS011;2872;48.874;9.358;2023-04-09T07:55:40;10.75;;;7.65;;
5694;SDS011;2872;48.874;9.358;2023-04-09T07:58:07;12.23;;;7.80;;
5694;SDS011;2872;48.874;9.358;2023-04-09T08:00:35;9.13;;;7.05;;
5694;SDS011;2872;48.874;9.358;2023-04-09T08:03:01;10.43;;;7.40;;
5694;SDS011;2872;48.874;9.358;2023-04-09T08:05:28;11.75;;;7.10;;
5694;SDS011;2872;48.874;9.358;2023-04-09T08:07:55;9.55;;;7.25;;
5694;SDS011;2872;48.874;9.358;2023-04-09T08:10:22;11.40;;;7.80;;
5694;SDS011;2872;48.874;9.358;2023-04-09T08:12:48;9.13;;;6.90;;
5694;SDS011;2872;48.874;9.358;2023-04-09T08:15:15;10.82;;;7.20;;
5694;SDS011;2872;48.874;9.358;2023-04-09T08:17:43;9.38;;;7.05;;
5694;SDS011;2872;48.874;9.358;2023-04-09T08:20:10;14.55;;;7.38;;
5694;SDS011;2872;48.874;9.358;2023-04-09T08:22:37;10.50;;;7.70;;
5694;SDS011;2872;48.874;9.358;2023-04-09T08:25:05;11.70;;;7.50;;
5694;SDS011;2872;48.874;9.358;2023-04-09T08:27:32;10.52;;;7.10;;
5694;SDS011;2872;48.874;9.358;2023-04-09T08:30:00;9.52;;;6.60;;
5694;SDS011;2872;48.874;9.358;2023-04-09T08:32:27;11.33;;;6.97;;
5694;SDS011;2872;48.874;9.358;2023-04-09T08:34:55;9.32;;;6.70;;
5694;SDS011;2872;48.874;9.358;2023-04-09T08:37:22;7.60;;;6.00;;
5694;SDS011;2872;48.874;9.358;2023-04-09T08:39:49;9.25;;;6.20;;
5694;SDS011;2872;48.874;9.358;2023-04-09T08:42:15;10.13;;;7.38;;
5694;SDS011;2872;48.874;9.358;2023-04-09T08:44:42;10.85;;;7.65;;
5694;SDS011;2872;48.874;9.358;2023-04-09T08:47:09;9.32;;;6.93;;
5694;SDS011;2872;48.874;9.358;2023-04-09T08:49:37;10.33;;;7.20;;
5694;SDS011;2872;48.874;9.358;2023-04-09T08:52:06;8.27;;;6.60;;
5694;SDS011;2872;48.874;9.358;2023-04-09T08:54:32;8.77;;;6.60;;
5694;SDS011;2872;48.874;9.358;2023-04-09T08:57:03;50.63;;;21.25;;
5694;SDS011;2872;48.874;9.358;2023-04-09T08:59:30;8.43;;;6.47;;
5694;SDS011;2872;48.874;9.358;2023-04-09T09:02:07;7.70;;;5.90;;
5694;SDS011;2872;48.874;9.358;2023-04-09T09:04:43;9.23;;;6.30;;
5694;SDS011;2872;48.874;9.358;2023-04-09T09:07:12;9.02;;;6.53;;
5694;SDS011;2872;48.874;9.358;2023-04-09T09:09:49;9.80;;;6.55;;
5694;SDS011;2872;48.874;9.358;2023-04-09T09:12:29;7.93;;;6.32;;
5694;SDS011;2872;48.874;9.358;2023-04-09T09:14:56;7.50;;;5.88;;
5694;SDS011;2872;48.874;9.358;2023-04-09T09:17:23;8.50;;;6.53;;
5694;SDS011;2872;48.874;9.358;2023-04-09T09:19:50;9.32;;;6.43;;
5694;SDS011;2872;48.874;9.358;2023-04-09T09:22:17;8.40;;;5.87;;
5694;SDS011;2872;48.874;9.358;2023-04-09T09:24:44;8.60;;;6.57;;
5694;SDS011;2872;48.874;9.358;2023-04-09T09:27:13;9.77;;;6.95;;
5694;SDS011;2872;48.874;9.358;2023-04-09T09:29:56;7.72;;;5.88;;
5694;SDS011;2872;48.874;9.358;2023-04-09T09:32:23;7.93;;;6.32;;
5694;SDS011;2872;48.874;9.358;2023-04-09T09:34:56;7.20;;;5.28;;
5694;SDS011;2872;48.874;9.358;2023-04-09T09:37:28;8.40;;;5.77;;
5694;SDS011;2872;48.874;9.358;2023-04-09T09:39:55;7.63;;;5.57;;
5694;SDS011;2872;48.874;9.358;2023-04-09T09:42:22;6.22;;;5.22;;
5694;SDS011;2872;48.874;9.358;2023-04-09T09:44:48;9.50;;;6.40;;
5694;SDS011;2872;48.874;9.358;2023-04-09T09:47:15;7.85;;;5.82;;
5694;SDS011;2872;48.874;9.358;2023-04-09T09:49:43;7.10;;;5.32;;
5694;SDS011;2872;48.874;9.358;2023-04-09T09:52:10;6.10;;;5.13;;
5694;SDS011;2872;48.874;9.358;2023-04-09T09:54:39;7.13;;;5.70;;
5694;SDS011;2872;48.874;9.358;2023-04-09T09:57:06;6.63;;;5.25;;
5694;SDS011;2872;48.874;9.358;2023-04-09T09:59:36;16.98;;;8.15;;
5694;SDS011;2872;48.874;9.358;2023-04-09T10:02:04;8.95;;;5.70;;
5694;SDS011;2872;48.874;9.358;2023-04-09T10:04:32;5.38;;;4.30;;
5694;SDS011;2872;48.874;9.358;2023-04-09T10:06:59;4.90;;;3.80;;
5694;SDS011;2872;48.874;9.358;2023-04-09T10:09:28;4.55;;;3.63;;
5694;SDS011;2872;48.874;9.358;2023-04-09T10:11:56;4.93;;;4.40;;
5694;SDS011;2872;48.874;9.358;2023-04-09T10:14:23;4.67;;;3.80;;
5694;SDS011;2872;48.874;9.358;2023-04-09T10:16:51;5.82;;;4.40;;
5694;SDS011;2872;48.874;9.358;2023-04-09T10:19:18;4.78;;;4.03;;
5694;SDS011;2872;48.874;9.358;2023-04-09T10:21:46;4.75;;;3.60;;
5694;SDS011;2872;48.874;9.358;2023-04-09T10:24:17;5.47;;;4.28;;
5694;SDS011;2872;48.874;9.358;2023-04-09T10:26:44;4.20;;;3.80;;
5694;SDS011;2872;48.874;9.358;2023-04-09T10:29:12;5.53;;;4.03;;
5694;SDS011;2872;48.874;9.358;2023-04-09T10:31:47;4.65;;;3.40;;
5694;SDS011;2872;48.874;9.358;2023-04-09T10:34:16;5.25;;;3.80;;
5694;SDS011;2872;48.874;9.358;2023-04-09T10:36:44;3.85;;;3.10;;
5694;SDS011;2872;48.874;9.358;2023-04-09T10:39:11;5.97;;;4.03;;
5694;SDS011;2872;48.874;9.358;2023-04-09T10:41:38;4.65;;;3.38;;
5694;SDS011;2872;48.874;9.358;2023-04-09T10:44:06;5.03;;;3.30;;
5694;SDS011;2872;48.874;9.358;2023-04-09T10:46:46;4.73;;;3.70;;
5694;SDS011;2872;48.874;9.358;2023-04-09T10:49:14;4.70;;;3.92;;
5694;SDS011;2872;48.874;9.358;2023-04-09T10:51:46;4.13;;;3.50;;
5694;SDS011;2872;48.874;9.358;2023-04-09T10:57:09;4.40;;;2.70;;
5694;SDS011;2872;48.874;9.358;2023-04-09T10:59:39;3.10;;;2.80;;
5694;SDS011;2872;48.874;9.358;2023-04-09T11:02:07;69.05;;;27.45;;
5694;SDS011;2872;48.874;9.358;2023-04-09T11:04:45;5.75;;;3.55;;
5694;SDS011;2872;48.874;9.358;2023-04-09T11:07:21;4.57;;;3.00;;
5694;SDS011;2872;48.874;9.358;2023-04-09T11:09:49;4.10;;;3.40;;
5694;SDS011;2872;48.874;9.358;2023-04-09T11:12:16;5.70;;;3.80;;
5694;SDS011;2872;48.874;9.358;2023-04-09T11:14:46;3.83;;;3.30;;
5694;SDS011;2872;48.874;9.358;2023-04-09T11:17:12;4.60;;;3.10;;
5694;SDS011;2872;48.874;9.358;2023-04-09T11:19:39;5.47;;;3.28;;
5694;SDS011;2872;48.874;9.358;2023-04-09T11:22:05;6.43;;;3.50;;
5694;SDS011;2872;48.874;9.358;2023-04-09T11:24:38;3.80;;;3.15;;
5694;SDS011;2872;48.874;9.358;2023-04-09T11:27:06;7.07;;;3.00;;
5694;SDS011;2872;48.874;9.358;2023-04-09T11:29:33;3.00;;;2.70;;
5694;SDS011;2872;48.874;9.358;2023-04-09T11:32:01;4.10;;;3.33;;
5694;SDS011;2872;48.874;9.358;2023-04-09T11:34:29;5.75;;;3.10;;
5694;SDS011;2872;48.874;9.358;2023-04-09T11:36:56;4.50;;;3.25;;
5694;SDS011;2872;48.874;9.358;2023-04-09T11:39:23;4.50;;;3.00;;
5694;SDS011;2872;48.874;9.358;2023-04-09T11:41:50;2.97;;;2.63;;
5694;SDS011;2872;48.874;9.358;2023-04-09T11:44:19;3.15;;;2.63;;
5694;SDS011;2872;48.874;9.358;2023-04-09T11:46:45;3.72;;;2.90;;
5694;SDS011;2872;48.874;9.358;2023-04-09T11:49:14;3.00;;;2.67;;
5694;SDS011;2872;48.874;9.358;2023-04-09T11:51:41;3.60;;;3.10;;
5694;SDS011;2872;48.874;9.358;2023-04-09T11:54:07;4.00;;;3.05;;
5694;SDS011;2872;48.874;9.358;2023-04-09T11:56:34;3.50;;;3.20;;
5694;SDS011;2872;48.874;9.358;2023-04-09T11:59:01;3.63;;;3.33;;
5694;SDS011;2872;48.874;9.358;2023-04-09T12:01:29;4.40;;;3.80;;
5694;SDS011;2872;48.874;9.358;2023-04-09T12:03:56;4.70;;;3.72;;
5694;SDS011;2872;48.874;9.358;2023-04-09T12:06:25;4.00;;;3.60;;
5694;SDS011;2872;48.874;9.358;2023-04-09T12:08:52;3.65;;;2.90;;
5694;SDS011;2872;48.874;9.358;2023-04-09T12:11:19;3.25;;;2.95;;
5694;SDS011;2872;48.874;9.358;2023-04-09T12:13:45;3.17;;;2.75;;
5694;SDS011;2872;48.874;9.358;2023-04-09T12:16:12;4.75;;;3.05;;
5694;SDS011;2872;48.874;9.358;2023-04-09T12:18:39;2.92;;;2.63;;
5694;SDS011;2872;48.874;9.358;2023-04-09T12:21:06;32.28;;;15.85;;
5694;SDS011;2872;48.874;9.358;2023-04-09T12:23:34;22.40;;;10.85;;
5694;SDS011;2872;48.874;9.358;2023-04-09T12:26:01;3.13;;;2.67;;
5694;SDS011;2872;48.874;9.358;2023-04-09T12:28:27;3.20;;;2.90;;
5694;SDS011;2872;48.874;9.358;2023-04-09T12:30:54;3.22;;;2.50;;
5694;SDS011;2872;48.874;9.358;2023-04-09T12:33:22;3.50;;;2.70;;
5694;SDS011;2872;48.874;9.358;2023-04-09T12:35:49;3.33;;;2.72;;
5694;SDS011;2872;48.874;9.358;2023-04-09T12:38:15;3.95;;;3.25;;
5694;SDS011;2872;48.874;9.358;2023-04-09T12:40:43;3.97;;;3.10;;
5694;SDS011;2872;48.874;9.358;2023-04-09T12:43:10;3.40;;;2.60;;
5694;SDS011;2872;48.874;9.358;2023-04-09T12:45:37;2.70;;;2.50;;
5694;SDS011;2872;48.874;9.358;2023-04-09T12:48:03;3.13;;;2.93;;
5694;SDS011;2872;48.874;9.358;2023-04-09T12:50:30;3.03;;;2.80;;
5694;SDS011;2872;48.874;9.358;2023-04-09T12:52:57;4.10;;;2.90;;
5694;SDS011;2872;48.874;9.358;2023-04-09T12:55:23;3.00;;;2.60;;
5694;SDS011;2872;48.874;9.358;2023-04-09T12:57:51;2.55;;;2.35;;
5694;SDS011;2872;48.874;9.358;2023-04-09T13:00:18;13.35;;;6.35;;
5694;SDS011;2872;48.874;9.358;2023-04-09T13:02:45;3.80;;;2.65;;
5694;SDS011;2872;48.874;9.358;2023-04-09T13:05:11;3.30;;;2.90;;
5694;SDS011;2872;48.874;9.358;2023-04-09T13:07:38;2.58;;;2.30;;
5694;SDS011;2872;48.874;9.358;2023-04-09T13:10:05;3.03;;;2.30;;
5694;SDS011;2872;48.874;9.358;2023-04-09T13:12:32;3.15;;;2.83;;
5694;SDS011;2872;48.874;9.358;2023-04-09T13:15:00;3.10;;;2.80;;
5694;SDS011;2872;48.874;9.358;2023-04-09T13:17:27;2.97;;;2.60;;
5694;SDS011;2872;48.874;9.358;2023-04-09T13:19:54;4.80;;;3.53;;
5694;SDS011;2872;48.874;9.358;2023-04-09T13:22:21;3.97;;;3.08;;
5694;SDS011;2872;48.874;9.358;2023-04-09T13:24:47;3.38;;;2.70;;
5694;SDS011;2872;48.874;9.358;2023-04-09T13:27:14;3.95;;;2.70;;
5694;SDS011;2872;48.874;9.358;2023-04-09T13:29:41;3.80;;;2.60;;
5694;SDS011;2872;48.874;9.358;2023-04-09T13:32:09;2.90;;;2.60;;
5694;SDS011;2872;48.874;9.358;2023-04-09T13:34:36;3.30;;;3.00;;
5694;SDS011;2872;48.874;9.358;2023-04-09T13:37:03;4.03;;;2.90;;
5694;SDS011;2872;48.874;9.358;2023-04-09T13:39:30;6.20;;;4.07;;
5694;SDS011;2872;48.874;9.358;2023-04-09T13:41:57;3.85;;;3.13;;
5694;SDS011;2872;48.874;9.358;2023-04-09T13:44:24;3.28;;;2.85;;
5694;SDS011;2872;48.874;9.358;2023-04-09T13:46:50;4.47;;;2.90;;
5694;SDS011;2872;48.874;9.358;2023-04-09T13:49:19;3.55;;;2.80;;
5694;SDS011;2872;48.874;9.358;2023-04-09T13:51:46;2.67;;;2.45;;
5694;SDS011;2872;48.874;9.358;2023-04-09T13:54:13;2.90;;;2.70;;
5694;SDS011;2872;48.874;9.358;2023-04-09T13:56:40;3.80;;;2.55;;
5694;SDS011;2872;48.874;9.358;2023-04-09T13:59:07;3.00;;;2.70;;
5694;SDS011;2872;48.874;9.358;2023-04-09T14:01:33;3.30;;;3.00;;
5694;SDS011;2872;48.874;9.358;2023-04-09T14:04:01;3.00;;;2.22;;
5694;SDS011;2872;48.874;9.358;2023-04-09T14:06:29;3.70;;;2.60;;
5694;SDS011;2872;48.874;9.358;2023-04-09T14:08:56;3.53;;;3.13;;
5694;SDS011;2872;48.874;9.358;2023-04-09T14:11:23;3.75;;;3.25;;
5694;SDS011;2872;48.874;9.358;2023-04-09T14:13:49;5.80;;;3.07;;
5694;SDS011;2872;48.874;9.358;2023-04-09T14:16:16;5.25;;;3.03;;
5694;SDS011;2872;48.874;9.358;2023-04-09T14:18:43;3.97;;;3.58;;
5694;SDS011;2872;48.874;9.358;2023-04-09T14:21:09;3.72;;;3.00;;
5694;SDS011;2872;48.874;9.358;2023-04-09T14:23:37;3.50;;;2.80;;
5694;SDS011;2872;48.874;9.358;2023-04-09T14:26:04;3.60;;;2.90;;
5694;SDS011;2872;48.874;9.358;2023-04-09T14:28:31;4.47;;;3.20;;
5694;SDS011;2872;48.874;9.358;2023-04-09T14:30:58;3.08;;;2.78;;
5694;SDS011;2872;48.874;9.358;2023-04-09T14:33:25;3.55;;;3.00;;
5694;SDS011;2872;48.874;9.358;2023-04-09T14:35:51;3.45;;;3.15;;
5694;SDS011;2872;48.874;9.358;2023-04-09T14:38:18;3.80;;;3.13;;
5694;SDS011;2872;48.874;9.358;2023-04-09T14:40:46;3.10;;;2.70;;
5694;SDS011;2872;48.874;9.358;2023-04-09T14:43:12;3.13;;;2.85;;
5694;SDS011;2872;48.874;9.358;2023-04-09T14:45:39;3.40;;;2.97;;
5694;SDS011;2872;48.874;9.358;2023-04-09T14:48:06;4.22;;;3.20;;
5694;SDS011;2872;48.874;9.358;2023-04-09T14:50:33;3.60;;;3.30;;
5694;SDS011;2872;48.874;9.358;2023-04-09T14:53:00;3.90;;;3.50;;
5694;SDS011;2872;48.874;9.358;2023-04-09T14:55:27;3.50;;;3.20;;
5694;SDS011;2872;48.874;9.358;2023-04-09T14:57:56;3.80;;;3.20;;
5694;SDS011;2872;48.874;9.358;2023-04-09T15:00:23;4.43;;;3.60;;
5694;SDS011;2872;48.874;9.358;2023-04-09T15:02:50;5.68;;;3.60;;
5694;SDS011;2872;48.874;9.358;2023-04-09T15:05:17;7.22;;;4.90;;
5694;SDS011;2872;48.874;9.358;2023-04-09T15:07:44;7.78;;;5.28;;
5694;SDS011;2872;48.874;9.358;2023-04-09T15:10:11;4.70;;;3.42;;
5694;SDS011;2872;48.874;9.358;2023-04-09T15:12:37;4.60;;;3.47;;